Huvudsida
METAR-TAF:

METAR-TAF

Flygplatser :

Gällivare Lapland Airport

Gällivare, Sverige

latitud: 67-09N, longitud: 020-39E, höjd: 359 m

Aktuellt väderrapport

Denna rapport gjordes för 13 minuter sedan, klockan 05:50 UTC
Vind 3 kt från väst, varierande mellan sydväst och nordväst
Temperatur -2°C
Fuktighet 93%
Tryck 1017 hPa
Sikt 10 km eller mer
Inga moln under 1 500 m eller inga cumulonimbus

METAR: ESNG 160550Z 28003KT 220V320 CAVOK M02/M03 Q1017

Tid: 07:03 (06:03 UTC)

Väderprognos

Denna rapport gjordes för 33 minuter sedan, klockan 05:30 UTC
Prognos gäller från 16 kl. 06 UTC till 16 kl. 12 UTC
Vind 6 kt från sydväst
Sikt 10 km eller mer
Inga moln under 1 500 m eller inga cumulonimbus
Sannolikhet 40%
från 16 kl. 06 UTC till 16 kl. 09 UTC
Sikt: 1200 m
dimbankar

TAF: ESNG 160530Z 1606/1612 23006KT CAVOK PROB40 1606/1609 1200 BCFG

Aktuella väderrapporter och prognoser från 4000 flygplatser (METAR- och TAF-rapporter).

De tillgängliga stationerna syns som gula och röda prickar på kartan.

För musen över prickarna för att se namnen på stationerna.

Klicka sedan för att få väderrapporter och prognoser.

För att ändra kartan: Klicka på de gröna knapparna med ett svart kors på för att zooma in; den gröna knappen med ett streck på för att zooma ut; eller på de gröna pilarna för angränsande kartor.


METAR-TAF: